sensor_id;sensor_type;location;lat;lon;timestamp;temperature;humidity
78611;SHT30;67932;50.474;4.436;2023-05-08T00:00:00;14.09;89.90
78611;SHT30;67932;50.474;4.436;2023-05-08T00:02:30;14.21;89.34
78611;SHT30;67932;50.474;4.436;2023-05-08T00:04:56;14.26;89.35
78611;SHT30;67932;50.474;4.436;2023-05-08T00:07:23;14.30;89.08
78611;SHT30;67932;50.474;4.436;2023-05-08T00:09:49;14.36;89.02
78611;SHT30;67932;50.474;4.436;2023-05-08T00:12:15;14.35;88.97
78611;SHT30;67932;50.474;4.436;2023-05-08T00:14:41;14.35;89.19
78611;SHT30;67932;50.474;4.436;2023-05-08T00:17:07;14.42;89.07
78611;SHT30;67932;50.474;4.436;2023-05-08T00:19:34;14.47;88.94
78611;SHT30;67932;50.474;4.436;2023-05-08T00:22:00;14.33;89.34
78611;SHT30;67932;50.474;4.436;2023-05-08T00:24:26;14.28;89.75
78611;SHT30;67932;50.474;4.436;2023-05-08T00:26:53;14.21;89.89
78611;SHT30;67932;50.474;4.436;2023-05-08T00:29:19;14.12;90.28
78611;SHT30;67932;50.474;4.436;2023-05-08T00:31:45;14.01;90.68
78611;SHT30;67932;50.474;4.436;2023-05-08T00:34:11;13.95;91.23
78611;SHT30;67932;50.474;4.436;2023-05-08T00:36:38;13.89;91.45
78611;SHT30;67932;50.474;4.436;2023-05-08T00:39:04;13.85;91.59
78611;SHT30;67932;50.474;4.436;2023-05-08T00:41:30;13.91;91.79
78611;SHT30;67932;50.474;4.436;2023-05-08T00:43:56;13.98;91.64
78611;SHT30;67932;50.474;4.436;2023-05-08T00:46:23;14.01;91.40
78611;SHT30;67932;50.474;4.436;2023-05-08T00:48:49;14.01;91.22
78611;SHT30;67932;50.474;4.436;2023-05-08T00:51:15;14.01;91.38
78611;SHT30;67932;50.474;4.436;2023-05-08T00:53:43;14.02;91.26
78611;SHT30;67932;50.474;4.436;2023-05-08T00:56:12;14.09;91.10
78611;SHT30;67932;50.474;4.436;2023-05-08T00:58:39;14.15;90.86
78611;SHT30;67932;50.474;4.436;2023-05-08T01:01:06;14.09;90.82
78611;SHT30;67932;50.474;4.436;2023-05-08T01:03:35;14.13;90.95
78611;SHT30;67932;50.474;4.436;2023-05-08T01:06:04;14.16;90.82
78611;SHT30;67932;50.474;4.436;2023-05-08T01:08:32;14.12;91.04
78611;SHT30;67932;50.474;4.436;2023-05-08T01:11:25;14.11;91.40
78611;SHT30;67932;50.474;4.436;2023-05-08T01:16:40;14.15;91.51
78611;SHT30;67932;50.474;4.436;2023-05-08T01:27:33;14.08;92.02
78611;SHT30;67932;50.474;4.436;2023-05-08T01:32:39;14.13;91.84
78611;SHT30;67932;50.474;4.436;2023-05-08T01:35:31;14.16;91.71
78611;SHT30;67932;50.474;4.436;2023-05-08T01:41:16;14.08;92.34
78611;SHT30;67932;50.474;4.436;2023-05-08T01:44:12;13.88;93.44
78611;SHT30;67932;50.474;4.436;2023-05-08T01:46:39;13.95;93.29
78611;SHT30;67932;50.474;4.436;2023-05-08T01:49:21;14.02;93.33
78611;SHT30;67932;50.474;4.436;2023-05-08T01:52:13;13.81;94.17
78611;SHT30;67932;50.474;4.436;2023-05-08T01:55:06;13.88;94.35
78611;SHT30;67932;50.474;4.436;2023-05-08T01:57:36;13.89;94.27
78611;SHT30;67932;50.474;4.436;2023-05-08T02:00:04;13.91;94.61
78611;SHT30;67932;50.474;4.436;2023-05-08T02:02:34;14.04;94.23
78611;SHT30;67932;50.474;4.436;2023-05-08T02:05:04;14.05;94.26
78611;SHT30;67932;50.474;4.436;2023-05-08T02:07:32;14.04;94.31
78611;SHT30;67932;50.474;4.436;2023-05-08T02:10:01;14.05;94.31
78611;SHT30;67932;50.474;4.436;2023-05-08T02:12:30;13.98;94.52
78611;SHT30;67932;50.474;4.436;2023-05-08T02:14:58;14.09;94.39
78611;SHT30;67932;50.474;4.436;2023-05-08T02:17:27;14.02;94.44
78611;SHT30;67932;50.474;4.436;2023-05-08T02:19:57;14.05;94.29
78611;SHT30;67932;50.474;4.436;2023-05-08T02:22:24;14.09;94.19
78611;SHT30;67932;50.474;4.436;2023-05-08T02:24:53;14.13;93.76
78611;SHT30;67932;50.474;4.436;2023-05-08T02:27:23;14.18;93.74
78611;SHT30;67932;50.474;4.436;2023-05-08T02:29:51;14.22;93.45
78611;SHT30;67932;50.474;4.436;2023-05-08T02:32:19;14.29;93.34
78611;SHT30;67932;50.474;4.436;2023-05-08T02:34:48;14.23;93.55
78611;SHT30;67932;50.474;4.436;2023-05-08T02:37:18;14.23;93.36
78611;SHT30;67932;50.474;4.436;2023-05-08T02:39:47;14.33;93.10
78611;SHT30;67932;50.474;4.436;2023-05-08T02:42:14;14.28;93.30
78611;SHT30;67932;50.474;4.436;2023-05-08T02:44:40;14.36;93.19
78611;SHT30;67932;50.474;4.436;2023-05-08T02:47:58;14.35;92.98
78611;SHT30;67932;50.474;4.436;2023-05-08T02:50:11;14.49;92.57
78611;SHT30;67932;50.474;4.436;2023-05-08T02:52:51;14.46;92.50
78611;SHT30;67932;50.474;4.436;2023-05-08T02:55:49;14.49;92.36
78611;SHT30;67932;50.474;4.436;2023-05-08T02:58:41;14.42;92.58
78611;SHT30;67932;50.474;4.436;2023-05-08T03:01:17;14.45;92.61
78611;SHT30;67932;50.474;4.436;2023-05-08T03:03:52;14.37;92.78
78611;SHT30;67932;50.474;4.436;2023-05-08T03:06:50;14.50;92.33
78611;SHT30;67932;50.474;4.436;2023-05-08T03:09:23;14.53;92.01
78611;SHT30;67932;50.474;4.436;2023-05-08T03:12:03;14.43;92.42
78611;SHT30;67932;50.474;4.436;2023-05-08T03:14:36;14.46;92.50
78611;SHT30;67932;50.474;4.436;2023-05-08T03:17:08;14.47;92.31
78611;SHT30;67932;50.474;4.436;2023-05-08T03:19:36;14.42;92.45
78611;SHT30;67932;50.474;4.436;2023-05-08T03:22:04;14.42;92.26
78611;SHT30;67932;50.474;4.436;2023-05-08T03:24:34;14.53;92.08
78611;SHT30;67932;50.474;4.436;2023-05-08T03:27:02;14.56;91.62
78611;SHT30;67932;50.474;4.436;2023-05-08T03:29:30;14.57;91.51
78611;SHT30;67932;50.474;4.436;2023-05-08T03:31:58;14.55;91.33
78611;SHT30;67932;50.474;4.436;2023-05-08T03:34:25;14.55;91.22
78611;SHT30;67932;50.474;4.436;2023-05-08T03:36:53;14.57;91.04
78611;SHT30;67932;50.474;4.436;2023-05-08T03:39:20;14.55;91.19
78611;SHT30;67932;50.474;4.436;2023-05-08T03:41:47;14.56;91.36
78611;SHT30;67932;50.474;4.436;2023-05-08T03:44:15;14.55;91.20
78611;SHT30;67932;50.474;4.436;2023-05-08T03:46:42;14.63;90.80
78611;SHT30;67932;50.474;4.436;2023-05-08T03:49:10;14.56;91.17
78611;SHT30;67932;50.474;4.436;2023-05-08T03:51:40;14.52;91.05
78611;SHT30;67932;50.474;4.436;2023-05-08T03:54:07;14.53;91.07
78611;SHT30;67932;50.474;4.436;2023-05-08T03:56:33;14.56;90.98
78611;SHT30;67932;50.474;4.436;2023-05-08T03:59:58;14.56;90.75
78611;SHT30;67932;50.474;4.436;2023-05-08T04:04:39;14.49;91.45
78611;SHT30;67932;50.474;4.436;2023-05-08T04:07:19;14.55;91.28
78611;SHT30;67932;50.474;4.436;2023-05-08T04:09:59;14.53;90.62
78611;SHT30;67932;50.474;4.436;2023-05-08T04:15:13;14.35;91.34
78611;SHT30;67932;50.474;4.436;2023-05-08T04:18:03;14.28;91.51
78611;SHT30;67932;50.474;4.436;2023-05-08T04:20:31;14.25;91.92
78611;SHT30;67932;50.474;4.436;2023-05-08T04:22:58;14.18;92.40
78611;SHT30;67932;50.474;4.436;2023-05-08T04:25:26;14.23;92.26
78611;SHT30;67932;50.474;4.436;2023-05-08T04:27:53;14.30;92.06
78611;SHT30;67932;50.474;4.436;2023-05-08T04:30:22;14.33;92.01
78611;SHT30;67932;50.474;4.436;2023-05-08T04:32:50;14.39;91.94
78611;SHT30;67932;50.474;4.436;2023-05-08T04:35:17;14.36;92.22
78611;SHT30;67932;50.474;4.436;2023-05-08T04:37:43;14.39;92.06
78611;SHT30;67932;50.474;4.436;2023-05-08T04:40:10;14.36;91.99
78611;SHT30;67932;50.474;4.436;2023-05-08T04:42:37;14.21;92.86
78611;SHT30;67932;50.474;4.436;2023-05-08T04:45:05;14.21;92.97
78611;SHT30;67932;50.474;4.436;2023-05-08T04:47:31;14.25;92.56
78611;SHT30;67932;50.474;4.436;2023-05-08T04:49:57;14.13;92.89
78611;SHT30;67932;50.474;4.436;2023-05-08T04:52:24;14.08;93.36
78611;SHT30;67932;50.474;4.436;2023-05-08T04:54:50;14.01;93.66
78611;SHT30;67932;50.474;4.436;2023-05-08T04:57:16;14.06;93.56
78611;SHT30;67932;50.474;4.436;2023-05-08T04:59:42;14.06;93.75
78611;SHT30;67932;50.474;4.436;2023-05-08T05:02:09;14.09;93.31
78611;SHT30;67932;50.474;4.436;2023-05-08T05:04:35;14.08;93.49
78611;SHT30;67932;50.474;4.436;2023-05-08T05:07:02;14.01;93.38
78611;SHT30;67932;50.474;4.436;2023-05-08T05:09:29;13.92;93.93
78611;SHT30;67932;50.474;4.436;2023-05-08T05:11:56;13.94;94.02
78611;SHT30;67932;50.474;4.436;2023-05-08T05:14:22;13.83;94.02
78611;SHT30;67932;50.474;4.436;2023-05-08T05:16:48;13.82;93.99
78611;SHT30;67932;50.474;4.436;2023-05-08T05:19:14;13.83;93.96
78611;SHT30;67932;50.474;4.436;2023-05-08T05:21:41;13.89;93.99
78611;SHT30;67932;50.474;4.436;2023-05-08T05:24:07;13.91;93.80
78611;SHT30;67932;50.474;4.436;2023-05-08T05:26:34;13.88;93.72
78611;SHT30;67932;50.474;4.436;2023-05-08T05:29:00;13.92;93.63
78611;SHT30;67932;50.474;4.436;2023-05-08T05:31:27;13.88;93.63
78611;SHT30;67932;50.474;4.436;2023-05-08T05:33:54;13.94;93.83
78611;SHT30;67932;50.474;4.436;2023-05-08T05:36:21;13.88;93.64
78611;SHT30;67932;50.474;4.436;2023-05-08T05:38:47;13.72;94.50
78611;SHT30;67932;50.474;4.436;2023-05-08T05:41:14;13.71;94.69
78611;SHT30;67932;50.474;4.436;2023-05-08T05:43:40;13.72;94.92
78611;SHT30;67932;50.474;4.436;2023-05-08T05:46:07;13.61;95.05
78611;SHT30;67932;50.474;4.436;2023-05-08T05:48:35;13.61;95.50
78611;SHT30;67932;50.474;4.436;2023-05-08T05:51:01;13.70;95.34
78611;SHT30;67932;50.474;4.436;2023-05-08T05:53:28;13.58;95.49
78611;SHT30;67932;50.474;4.436;2023-05-08T05:55:54;13.65;95.48
78611;SHT30;67932;50.474;4.436;2023-05-08T05:58:21;13.65;95.08
78611;SHT30;67932;50.474;4.436;2023-05-08T06:00:47;13.74;94.82
78611;SHT30;67932;50.474;4.436;2023-05-08T06:03:13;13.83;94.51
78611;SHT30;67932;50.474;4.436;2023-05-08T06:05:40;13.83;94.38
78611;SHT30;67932;50.474;4.436;2023-05-08T06:08:07;13.75;94.88
78611;SHT30;67932;50.474;4.436;2023-05-08T06:10:33;13.78;94.92
78611;SHT30;67932;50.474;4.436;2023-05-08T06:12:59;13.94;94.58
78611;SHT30;67932;50.474;4.436;2023-05-08T06:15:26;13.83;93.85
78611;SHT30;67932;50.474;4.436;2023-05-08T06:17:52;13.75;94.24
78611;SHT30;67932;50.474;4.436;2023-05-08T06:20:19;13.77;94.71
78611;SHT30;67932;50.474;4.436;2023-05-08T06:22:45;13.78;94.43
78611;SHT30;67932;50.474;4.436;2023-05-08T06:25:12;13.82;94.02
78611;SHT30;67932;50.474;4.436;2023-05-08T06:27:39;13.83;93.98
78611;SHT30;67932;50.474;4.436;2023-05-08T06:30:06;13.83;94.04
78611;SHT30;67932;50.474;4.436;2023-05-08T06:32:33;13.91;93.65
78611;SHT30;67932;50.474;4.436;2023-05-08T06:34:59;13.88;93.28
78611;SHT30;67932;50.474;4.436;2023-05-08T06:37:25;14.02;92.89
78611;SHT30;67932;50.474;4.436;2023-05-08T06:39:52;14.09;92.62
78611;SHT30;67932;50.474;4.436;2023-05-08T06:42:18;14.02;92.72
78611;SHT30;67932;50.474;4.436;2023-05-08T06:44:44;13.97;93.24
78611;SHT30;67932;50.474;4.436;2023-05-08T06:47:10;14.08;92.97
78611;SHT30;67932;50.474;4.436;2023-05-08T06:49:37;14.09;93.20
78611;SHT30;67932;50.474;4.436;2023-05-08T06:52:03;14.12;92.70
78611;SHT30;67932;50.474;4.436;2023-05-08T06:54:30;14.05;92.70
78611;SHT30;67932;50.474;4.436;2023-05-08T06:56:56;14.00;92.32
78611;SHT30;67932;50.474;4.436;2023-05-08T06:59:22;14.13;91.96
78611;SHT30;67932;50.474;4.436;2023-05-08T07:01:49;14.30;91.86
78611;SHT30;67932;50.474;4.436;2023-05-08T07:04:15;14.21;91.20
78611;SHT30;67932;50.474;4.436;2023-05-08T07:06:42;14.08;91.90
78611;SHT30;67932;50.474;4.436;2023-05-08T07:09:08;14.04;92.82
78611;SHT30;67932;50.474;4.436;2023-05-08T07:11:35;14.01;93.43
78611;SHT30;67932;50.474;4.436;2023-05-08T07:14:02;14.11;92.96
78611;SHT30;67932;50.474;4.436;2023-05-08T07:16:28;14.11;92.57
78611;SHT30;67932;50.474;4.436;2023-05-08T07:18:55;14.16;92.45
78611;SHT30;67932;50.474;4.436;2023-05-08T07:21:21;14.12;93.03
78611;SHT30;67932;50.474;4.436;2023-05-08T07:23:47;14.19;92.70
78611;SHT30;67932;50.474;4.436;2023-05-08T07:26:16;14.23;92.23
78611;SHT30;67932;50.474;4.436;2023-05-08T07:28:43;14.25;91.13
78611;SHT30;67932;50.474;4.436;2023-05-08T07:31:09;14.33;91.53
78611;SHT30;67932;50.474;4.436;2023-05-08T07:33:36;14.45;90.51
78611;SHT30;67932;50.474;4.436;2023-05-08T07:36:02;14.45;90.75
78611;SHT30;67932;50.474;4.436;2023-05-08T07:38:28;14.33;91.03
78611;SHT30;67932;50.474;4.436;2023-05-08T07:40:55;14.36;90.85
78611;SHT30;67932;50.474;4.436;2023-05-08T07:43:26;14.47;90.73
78611;SHT30;67932;50.474;4.436;2023-05-08T07:45:52;14.75;89.89
78611;SHT30;67932;50.474;4.436;2023-05-08T07:48:18;14.87;89.02
78611;SHT30;67932;50.474;4.436;2023-05-08T07:50:45;14.90;88.72
78611;SHT30;67932;50.474;4.436;2023-05-08T07:53:11;15.06;87.61
78611;SHT30;67932;50.474;4.436;2023-05-08T07:55:37;15.11;87.28
78611;SHT30;67932;50.474;4.436;2023-05-08T07:58:04;14.90;88.52
78611;SHT30;67932;50.474;4.436;2023-05-08T08:00:30;15.04;88.11
78611;SHT30;67932;50.474;4.436;2023-05-08T08:02:56;15.01;88.32
78611;SHT30;67932;50.474;4.436;2023-05-08T08:05:23;14.65;89.39
78611;SHT30;67932;50.474;4.436;2023-05-08T08:07:49;14.62;88.96
78611;SHT30;67932;50.474;4.436;2023-05-08T08:10:15;14.83;88.28
78611;SHT30;67932;50.474;4.436;2023-05-08T08:12:41;14.57;88.92
78611;SHT30;67932;50.474;4.436;2023-05-08T08:15:08;14.86;88.96
78611;SHT30;67932;50.474;4.436;2023-05-08T08:17:34;14.96;88.03
78611;SHT30;67932;50.474;4.436;2023-05-08T08:20:01;15.20;87.43
78611;SHT30;67932;50.474;4.436;2023-05-08T08:22:27;15.06;88.07
78611;SHT30;67932;50.474;4.436;2023-05-08T08:24:57;15.20;87.24
78611;SHT30;67932;50.474;4.436;2023-05-08T08:27:23;15.41;86.41
78611;SHT30;67932;50.474;4.436;2023-05-08T08:29:49;15.10;86.04
78611;SHT30;67932;50.474;4.436;2023-05-08T08:32:16;14.93;87.24
78611;SHT30;67932;50.474;4.436;2023-05-08T08:34:42;15.04;86.47
78611;SHT30;67932;50.474;4.436;2023-05-08T08:37:08;15.10;86.48
78611;SHT30;67932;50.474;4.436;2023-05-08T08:39:35;15.12;86.11
78611;SHT30;67932;50.474;4.436;2023-05-08T08:42:02;15.28;86.12
78611;SHT30;67932;50.474;4.436;2023-05-08T08:44:28;15.27;85.76
78611;SHT30;67932;50.474;4.436;2023-05-08T08:46:58;15.20;86.22
78611;SHT30;67932;50.474;4.436;2023-05-08T08:49:30;15.12;86.78
78611;SHT30;67932;50.474;4.436;2023-05-08T08:52:02;15.08;86.98
78611;SHT30;67932;50.474;4.436;2023-05-08T08:54:33;15.16;86.48
78611;SHT30;67932;50.474;4.436;2023-05-08T08:57:04;15.21;86.22
78611;SHT30;67932;50.474;4.436;2023-05-08T08:59:33;15.31;85.21
78611;SHT30;67932;50.474;4.436;2023-05-08T09:02:04;15.30;85.06
78611;SHT30;67932;50.474;4.436;2023-05-08T09:04:31;15.50;84.45
78611;SHT30;67932;50.474;4.436;2023-05-08T09:06:58;15.54;84.60
78611;SHT30;67932;50.474;4.436;2023-05-08T09:09:25;15.47;85.03
78611;SHT30;67932;50.474;4.436;2023-05-08T09:11:51;15.71;84.71
78611;SHT30;67932;50.474;4.436;2023-05-08T09:14:18;15.59;84.45
78611;SHT30;67932;50.474;4.436;2023-05-08T09:16:44;15.88;83.76
78611;SHT30;67932;50.474;4.436;2023-05-08T09:19:13;16.04;82.96
78611;SHT30;67932;50.474;4.436;2023-05-08T09:21:41;16.23;81.18
78611;SHT30;67932;50.474;4.436;2023-05-08T09:24:07;16.32;81.64
78611;SHT30;67932;50.474;4.436;2023-05-08T09:26:39;16.46;80.55
78611;SHT30;67932;50.474;4.436;2023-05-08T09:29:13;16.27;79.94
78611;SHT30;67932;50.474;4.436;2023-05-08T09:31:43;16.61;79.64
78611;SHT30;67932;50.474;4.436;2023-05-08T09:34:11;16.60;79.73
78611;SHT30;67932;50.474;4.436;2023-05-08T09:36:47;16.61;79.11
78611;SHT30;67932;50.474;4.436;2023-05-08T09:39:21;16.37;78.15
78611;SHT30;67932;50.474;4.436;2023-05-08T09:41:59;16.17;79.31
78611;SHT30;67932;50.474;4.436;2023-05-08T09:44:26;16.34;78.94
78611;SHT30;67932;50.474;4.436;2023-05-08T09:47:10;16.40;78.11
78611;SHT30;67932;50.474;4.436;2023-05-08T09:49:37;16.50;77.95
78611;SHT30;67932;50.474;4.436;2023-05-08T09:52:06;16.43;78.05
78611;SHT30;67932;50.474;4.436;2023-05-08T09:54:33;16.87;77.69
78611;SHT30;67932;50.474;4.436;2023-05-08T09:56:59;16.83;77.29
78611;SHT30;67932;50.474;4.436;2023-05-08T09:59:27;17.03;75.72
78611;SHT30;67932;50.474;4.436;2023-05-08T10:01:55;17.23;75.27
78611;SHT30;67932;50.474;4.436;2023-05-08T10:04:34;17.74;73.40
78611;SHT30;67932;50.474;4.436;2023-05-08T10:07:01;17.27;72.75
78611;SHT30;67932;50.474;4.436;2023-05-08T10:09:28;17.31;73.95
78611;SHT30;67932;50.474;4.436;2023-05-08T10:11:55;17.56;73.34
78611;SHT30;67932;50.474;4.436;2023-05-08T10:14:24;17.44;74.77
78611;SHT30;67932;50.474;4.436;2023-05-08T10:16:52;17.52;74.16
78611;SHT30;67932;50.474;4.436;2023-05-08T10:19:23;17.61;74.82
78611;SHT30;67932;50.474;4.436;2023-05-08T10:21:52;17.30;74.98
78611;SHT30;67932;50.474;4.436;2023-05-08T10:24:21;17.25;75.05
78611;SHT30;67932;50.474;4.436;2023-05-08T10:27:03;17.30;74.24
78611;SHT30;67932;50.474;4.436;2023-05-08T10:32:19;17.21;74.85
78611;SHT30;67932;50.474;4.436;2023-05-08T10:34:52;17.38;73.67
78611;SHT30;67932;50.474;4.436;2023-05-08T10:37:21;17.55;73.00
78611;SHT30;67932;50.474;4.436;2023-05-08T10:39:48;17.95;73.01
78611;SHT30;67932;50.474;4.436;2023-05-08T10:42:15;18.26;69.71
78611;SHT30;67932;50.474;4.436;2023-05-08T10:44:41;18.00;71.02
78611;SHT30;67932;50.474;4.436;2023-05-08T10:53:17;18.03;69.98
78611;SHT30;67932;50.474;4.436;2023-05-08T10:55:49;17.81;71.31
78611;SHT30;67932;50.474;4.436;2023-05-08T10:58:30;17.69;70.94
78611;SHT30;67932;50.474;4.436;2023-05-08T11:03:26;18.00;71.32
78611;SHT30;67932;50.474;4.436;2023-05-08T11:05:56;17.56;71.33
78611;SHT30;67932;50.474;4.436;2023-05-08T11:08:24;17.96;71.75
78611;SHT30;67932;50.474;4.436;2023-05-08T11:16:07;17.58;74.51
78611;SHT30;67932;50.474;4.436;2023-05-08T11:18:37;17.76;73.82
78611;SHT30;67932;50.474;4.436;2023-05-08T11:21:14;17.20;74.55
78611;SHT30;67932;50.474;4.436;2023-05-08T11:23:40;17.42;75.40
78611;SHT30;67932;50.474;4.436;2023-05-08T11:26:13;17.55;74.14
78611;SHT30;67932;50.474;4.436;2023-05-08T11:28:55;17.81;73.83
78611;SHT30;67932;50.474;4.436;2023-05-08T11:31:22;17.96;72.64
78611;SHT30;67932;50.474;4.436;2023-05-08T11:33:49;18.02;72.77
78611;SHT30;67932;50.474;4.436;2023-05-08T11:36:16;17.61;73.01
78611;SHT30;67932;50.474;4.436;2023-05-08T11:38:44;17.72;73.42
78611;SHT30;67932;50.474;4.436;2023-05-08T11:41:29;17.76;73.24
78611;SHT30;67932;50.474;4.436;2023-05-08T11:46:37;17.58;73.17
78611;SHT30;67932;50.474;4.436;2023-05-08T11:49:05;17.51;74.32
78611;SHT30;67932;50.474;4.436;2023-05-08T11:51:35;17.58;74.07
78611;SHT30;67932;50.474;4.436;2023-05-08T11:54:03;17.49;74.05
78611;SHT30;67932;50.474;4.436;2023-05-08T11:56:30;17.54;73.89
78611;SHT30;67932;50.474;4.436;2023-05-08T11:59:05;17.51;73.78
78611;SHT30;67932;50.474;4.436;2023-05-08T12:01:34;17.20;74.28
78611;SHT30;67932;50.474;4.436;2023-05-08T12:06:27;17.72;73.88
78611;SHT30;67932;50.474;4.436;2023-05-08T12:08:54;17.89;73.00
78611;SHT30;67932;50.474;4.436;2023-05-08T12:11:23;17.79;73.76
78611;SHT30;67932;50.474;4.436;2023-05-08T12:13:51;17.64;74.20
78611;SHT30;67932;50.474;4.436;2023-05-08T12:16:17;17.65;73.94
78611;SHT30;67932;50.474;4.436;2023-05-08T12:18:43;17.89;73.43
78611;SHT30;67932;50.474;4.436;2023-05-08T12:21:11;18.39;72.73
78611;SHT30;67932;50.474;4.436;2023-05-08T12:23:37;18.77;70.03
78611;SHT30;67932;50.474;4.436;2023-05-08T12:26:04;18.32;71.62
78611;SHT30;67932;50.474;4.436;2023-05-08T12:28:30;17.93;73.00
78611;SHT30;67932;50.474;4.436;2023-05-08T12:31:01;17.90;72.27
78611;SHT30;67932;50.474;4.436;2023-05-08T12:33:27;18.08;71.45
78611;SHT30;67932;50.474;4.436;2023-05-08T12:35:57;18.34;71.06
78611;SHT30;67932;50.474;4.436;2023-05-08T12:38:27;18.26;70.18
78611;SHT30;67932;50.474;4.436;2023-05-08T12:40:54;18.74;69.13
78611;SHT30;67932;50.474;4.436;2023-05-08T12:43:29;18.30;69.78
78611;SHT30;67932;50.474;4.436;2023-05-08T12:45:55;18.70;69.61
78611;SHT30;67932;50.474;4.436;2023-05-08T12:48:22;18.61;69.75
78611;SHT30;67932;50.474;4.436;2023-05-08T12:50:48;18.39;70.82
78611;SHT30;67932;50.474;4.436;2023-05-08T12:53:18;18.42;72.18
78611;SHT30;67932;50.474;4.436;2023-05-08T12:55:56;18.30;71.89
78611;SHT30;67932;50.474;4.436;2023-05-08T12:58:27;18.44;71.57
78611;SHT30;67932;50.474;4.436;2023-05-08T13:01:04;18.64;70.83
78611;SHT30;67932;50.474;4.436;2023-05-08T13:03:30;18.94;70.53
78611;SHT30;67932;50.474;4.436;2023-05-08T13:05:58;19.39;68.64
78611;SHT30;67932;50.474;4.436;2023-05-08T13:08:35;19.54;68.70
78611;SHT30;67932;50.474;4.436;2023-05-08T13:11:03;19.63;68.81
78611;SHT30;67932;50.474;4.436;2023-05-08T13:13:34;19.93;67.10
78611;SHT30;67932;50.474;4.436;2023-05-08T13:16:05;19.73;66.80
78611;SHT30;67932;50.474;4.436;2023-05-08T13:18:32;19.76;67.86
78611;SHT30;67932;50.474;4.436;2023-05-08T13:20:58;20.02;67.12
78611;SHT30;67932;50.474;4.436;2023-05-08T13:23:27;20.64;65.59
78611;SHT30;67932;50.474;4.436;2023-05-08T13:25:53;20.95;63.56
78611;SHT30;67932;50.474;4.436;2023-05-08T13:28:20;20.73;63.82
78611;SHT30;67932;50.474;4.436;2023-05-08T13:30:46;19.97;65.99
78611;SHT30;67932;50.474;4.436;2023-05-08T13:33:12;20.08;66.21
78611;SHT30;67932;50.474;4.436;2023-05-08T13:35:39;20.20;66.15
78611;SHT30;67932;50.474;4.436;2023-05-08T13:38:05;20.63;62.84
78611;SHT30;67932;50.474;4.436;2023-05-08T13:40:32;20.74;64.32
78611;SHT30;67932;50.474;4.436;2023-05-08T13:42:58;20.91;62.89
78611;SHT30;67932;50.474;4.436;2023-05-08T13:45:24;21.25;61.79
78611;SHT30;67932;50.474;4.436;2023-05-08T13:47:50;21.19;61.50
78611;SHT30;67932;50.474;4.436;2023-05-08T13:50:17;19.75;64.59
78611;SHT30;67932;50.474;4.436;2023-05-08T13:52:47;19.42;64.94
78611;SHT30;67932;50.474;4.436;2023-05-08T13:55:14;20.34;63.01
78611;SHT30;67932;50.474;4.436;2023-05-08T13:57:41;20.40;62.42
78611;SHT30;67932;50.474;4.436;2023-05-08T14:00:08;20.87;61.46
78611;SHT30;67932;50.474;4.436;2023-05-08T14:02:34;19.79;64.19
78611;SHT30;67932;50.474;4.436;2023-05-08T14:05:03;19.68;63.62
78611;SHT30;67932;50.474;4.436;2023-05-08T14:07:29;20.61;62.42
78611;SHT30;67932;50.474;4.436;2023-05-08T14:09:56;20.76;61.01
78611;SHT30;67932;50.474;4.436;2023-05-08T14:12:22;20.44;62.93
78611;SHT30;67932;50.474;4.436;2023-05-08T14:14:48;20.19;64.15
78611;SHT30;67932;50.474;4.436;2023-05-08T14:17:15;20.24;65.11
78611;SHT30;67932;50.474;4.436;2023-05-08T14:19:42;19.97;65.04
78611;SHT30;67932;50.474;4.436;2023-05-08T14:22:09;19.90;66.08
78611;SHT30;67932;50.474;4.436;2023-05-08T14:24:35;20.09;66.00
78611;SHT30;67932;50.474;4.436;2023-05-08T14:27:01;20.13;66.17
78611;SHT30;67932;50.474;4.436;2023-05-08T14:29:31;20.12;65.72
78611;SHT30;67932;50.474;4.436;2023-05-08T14:31:58;20.09;66.36
78611;SHT30;67932;50.474;4.436;2023-05-08T14:34:25;19.94;66.02
78611;SHT30;67932;50.474;4.436;2023-05-08T14:36:51;21.22;63.48
78611;SHT30;67932;50.474;4.436;2023-05-08T14:39:18;21.63;62.74
78611;SHT30;67932;50.474;4.436;2023-05-08T14:41:44;20.16;65.27
78611;SHT30;67932;50.474;4.436;2023-05-08T14:44:10;20.08;66.40
78611;SHT30;67932;50.474;4.436;2023-05-08T14:46:36;19.70;66.27
78611;SHT30;67932;50.474;4.436;2023-05-08T14:49:03;20.54;64.38
78611;SHT30;67932;50.474;4.436;2023-05-08T14:51:29;20.46;63.94
78611;SHT30;67932;50.474;4.436;2023-05-08T14:53:56;19.78;66.48
78611;SHT30;67932;50.474;4.436;2023-05-08T14:56:22;19.59;67.48
78611;SHT30;67932;50.474;4.436;2023-05-08T14:58:50;19.03;69.82
78611;SHT30;67932;50.474;4.436;2023-05-08T15:01:16;18.80;70.19
78611;SHT30;67932;50.474;4.436;2023-05-08T15:03:43;18.88;69.76
78611;SHT30;67932;50.474;4.436;2023-05-08T15:06:12;19.01;70.67
78611;SHT30;67932;50.474;4.436;2023-05-08T15:08:38;18.61;71.32
78611;SHT30;67932;50.474;4.436;2023-05-08T15:11:05;18.61;71.05
78611;SHT30;67932;50.474;4.436;2023-05-08T15:13:31;18.87;69.72
78611;SHT30;67932;50.474;4.436;2023-05-08T15:15:57;18.75;70.41
78611;SHT30;67932;50.474;4.436;2023-05-08T15:18:24;18.68;71.17
78611;SHT30;67932;50.474;4.436;2023-05-08T15:20:53;18.60;71.12
78611;SHT30;67932;50.474;4.436;2023-05-08T15:23:19;18.37;71.27
78611;SHT30;67932;50.474;4.436;2023-05-08T15:25:46;18.20;72.22
78611;SHT30;67932;50.474;4.436;2023-05-08T15:28:12;18.23;72.76
78611;SHT30;67932;50.474;4.436;2023-05-08T15:30:38;17.78;73.59
78611;SHT30;67932;50.474;4.436;2023-05-08T15:33:04;17.72;74.51
78611;SHT30;67932;50.474;4.436;2023-05-08T15:35:31;17.89;73.44
78611;SHT30;67932;50.474;4.436;2023-05-08T15:37:57;18.02;73.51
78611;SHT30;67932;50.474;4.436;2023-05-08T15:40:30;17.86;74.38
78611;SHT30;67932;50.474;4.436;2023-05-08T15:42:57;17.88;74.41
78611;SHT30;67932;50.474;4.436;2023-05-08T15:45:23;17.69;75.27
78611;SHT30;67932;50.474;4.436;2023-05-08T15:47:49;17.49;75.50
78611;SHT30;67932;50.474;4.436;2023-05-08T15:50:15;17.69;75.17
78611;SHT30;67932;50.474;4.436;2023-05-08T15:52:42;17.89;74.14
78611;SHT30;67932;50.474;4.436;2023-05-08T15:55:08;17.59;74.24
78611;SHT30;67932;50.474;4.436;2023-05-08T15:57:35;17.51;75.14
78611;SHT30;67932;50.474;4.436;2023-05-08T16:00:02;17.42;75.49
78611;SHT30;67932;50.474;4.436;2023-05-08T16:02:28;17.34;75.39
78611;SHT30;67932;50.474;4.436;2023-05-08T16:04:57;17.41;75.30
78611;SHT30;67932;50.474;4.436;2023-05-08T16:07:23;17.28;75.56
78611;SHT30;67932;50.474;4.436;2023-05-08T16:09:49;17.27;75.31
78611;SHT30;67932;50.474;4.436;2023-05-08T16:12:16;17.35;75.65
78611;SHT30;67932;50.474;4.436;2023-05-08T16:14:43;17.54;74.90
78611;SHT30;67932;50.474;4.436;2023-05-08T16:17:10;17.65;74.50
78611;SHT30;67932;50.474;4.436;2023-05-08T16:19:37;17.48;74.79
78611;SHT30;67932;50.474;4.436;2023-05-08T16:22:03;17.41;75.09